Flight Track Log - Related Links

Times and Time Zones

All times are in EDT time to prevent confusion due to time zone crossing. See the N102WT flight status page for this flight to view local times or setup timezone preferences in your user account.

Time Position Orientation Groundspeed Altitude Reporting Facility
EDT Latitude Longitude Course Direction KTS MPH feet Rate Location/Type
Tue 03:35:38 PM 40.8333 -72.8833 37° Northeast 120 138 1,000  Level New York TRACON
Tue 03:36:38 PM 40.8667 -72.8500 37° Northeast 135 155 1,900 900 Climbing New York TRACON
Tue 03:37:38 PM 40.9000 -72.8500 360° North 123 142 2,800 893 Climbing New York TRACON
Tue 03:38:39 PM 40.9167 -72.8833 303° West 104 120 3,700 850 Climbing New York TRACON
Tue 03:39:38 PM 40.9333 -72.9167 304° West 113 130 4,500 842 Climbing New York TRACON
Tue 03:40:33 PM 40.9667 -72.9333 339° North 119 137 5,300 1,050 Climbing New York TRACON
Tue 03:41:38 PM 40.9833 -72.9500 323° Northwest 91 105 6,600 857 Climbing New York TRACON
Tue 03:42:39 PM 41.0167 -72.9833 323° Northwest 109 125 7,100 200 Climbing New York TRACON
Tue 03:43:38 PM 41.0333 -73.0167 304° West 135 155 7,000 -50 Descending New York TRACON
Tue 03:44:39 PM 41.0667 -73.0333 339° North 130 150 7,000  Level New York TRACON
Tue 03:45:38 PM 41.1000 -73.0667 323° Northwest 138 159 7,000  Level New York TRACON
Tue 03:46:39 PM 41.1333 -73.1000 323° Northwest 150 173 7,000 50 Level New York TRACON
Tue 03:47:38 PM 41.1667 -73.1333 323° Northwest 143 165 7,100  Climbing New York TRACON
Tue 03:48:38 PM 41.2000 -73.1500 339° North 150 173 7,000 -34 Descending New York TRACON
Tue 03:50:33 PM 41.2811 -73.1758 347° North 155 178 7,000  Level Boston Center
Tue 03:51:35 PM 41.3203 -73.1942 341° North 147 169 7,000  Level Boston Center
Tue 03:52:36 PM 41.3628 -73.2136 341° North 150 173 7,000  Level Boston Center
Tue 03:53:37 PM 41.4039 -73.2289 344° North 156 180 7,000 49 Level Boston Center
Tue 03:54:39 PM 41.4439 -73.2456 343° North 153 176 7,100  Climbing Boston Center
Tue 03:55:40 PM 41.4844 -73.2619 343° North 153 176 7,000 -49 Descending Boston Center
Tue 03:56:41 PM 41.5275 -73.2811 342° North 153 176 7,000  Level Boston Center
Tue 03:57:43 PM 41.5694 -73.2994 342° North 157 181 7,000  Level Boston Center
Tue 03:58:44 PM 41.6089 -73.3167 342° North 149 171 7,000  Level Boston Center
Tue 03:59:46 PM 41.6506 -73.3347 342° North 156 180 7,000  Level Boston Center
Tue 04:00:47 PM 41.6944 -73.3519 344° North 152 175 7,000  Level Boston Center
Tue 04:01:49 PM 41.7339 -73.3697 341° North 151 174 7,000  Level Boston Center
Tue 04:02:50 PM 41.7736 -73.3858 343° North 148 170 7,000  Level Boston Center
Tue 04:03:51 PM 41.8164 -73.4050 342° North 152 175 7,000  Level Boston Center
Tue 04:04:53 PM 41.8581 -73.4219 343° North 156 180 7,000  Level Boston Center
Tue 04:05:54 PM 41.8989 -73.4372 344° North 152 175 7,000  Level Boston Center
Tue 04:06:56 PM 41.9436 -73.4542 344° North 155 178 7,000  Level Boston Center
Tue 04:07:57 PM 41.9828 -73.4747 339° North 152 175 7,000  Level Boston Center
Tue 04:08:59 PM 42.0231 -73.4911 343° North 152 175 7,000  Level Boston Center
Tue 04:09:36 PM 42.0467 -73.5014 342° North 151 174 7,000  Level Boston Center
Tue 04:10:00 PM 42.0614 -73.5083 341° North 144 166 7,000  Level Boston Center
Tue 04:10:07 PM 42.0678 -73.5142 326° Northwest 150 173 7,000  Level Boston Center
Tue 04:11:02 PM 42.0989 -73.5239 347° North 149 171 7,000  Level Boston Center
Tue 04:11:14 PM 42.1108 -73.5256 354° North 155 178 7,000  Level Boston Center
Tue 04:12:03 PM 42.1428 -73.5264 359° North 155 178 7,000  Level Boston Center
Tue 04:12:14 PM 42.1553 -73.5286 352° North 158 182 7,000  Level Boston Center
Tue 04:13:03 PM 42.1911 -73.5203 10° North 157 181 7,000  Level Boston Center
Tue 04:13:04 PM 42.1861 -73.5225 198° South 156 180 7,000  Level Boston Center
Tue 04:14:03 PM 42.2367 -73.5064 13° North 167 192 7,000  Level Boston Center
Tue 04:14:06 PM 42.2392 -73.5033 42° Northeast 162 186 7,000  Level Boston Center
Tue 04:15:07 PM 42.2825 -73.4983 North 156 180 7,000  Level Boston Center
Tue 04:16:05 PM 42.3239 -73.4861 12° North 161 185 7,000  Level Boston Center
Tue 04:16:09 PM 42.3261 -73.4839 36° Northeast 160 184 7,000  Level Boston Center
Tue 04:17:06 PM 42.3664 -73.4769 North 158 182 7,000  Level Boston Center
Tue 04:17:10 PM 42.3714 -73.4769 360° North 159 183 7,000  Level Boston Center
Tue 04:18:06 PM 42.4133 -73.4667 10° North 169 194 7,000  Level Boston Center
Tue 04:18:12 PM 42.4203 -73.4644 13° North 166 191 7,000  Level Boston Center
Tue 04:19:13 PM 42.4658 -73.4536 10° North 165 190 7,000  Level Boston Center
Tue 04:19:19 PM 42.4675 -73.4525 26° Northeast 165 190 7,000 -677 Level Boston Center
Tue 04:20:15 PM 42.5108 -73.4478 North 163 188 6,300 -826 Descending Boston Center
Tue 04:21:08 PM 42.5558 -73.4500 358° North 179 206 5,500 -885 Descending Boston Center
Tue 04:21:16 PM 42.5642 -73.4500 360° North 175 201 5,400 -492 Descending Boston Center
Tue 04:22:09 PM 42.6050 -73.4517 358° North 174 200 5,000 -484 Descending Boston Center
Tue 04:22:18 PM 42.6122 -73.4511 North 173 199 4,900 -590 Descending Boston Center
Tue 04:23:10 PM 42.6519 -73.4528 358° North 170 196 4,400 -590 Descending Boston Center
Tue 04:23:19 PM 42.6594 -73.4539 354° North 170 196 4,300 -700 Descending Boston Center
Tue 04:24:10 PM 42.7000 -73.4600 354° North 173 199 3,700 -774 Descending Boston Center
Tue 04:24:21 PM 42.7108 -73.4642 344° North 175 201 3,500 -218 Descending Boston Center
Tue 04:25:05 PM 42.7386 -73.4842 332° Northwest 163 188 3,500  Level Boston Center
Tue 04:25:22 PM 42.7453 -73.4969 305° West 150 173 3,500  Level Boston Center
Tue 04:26:06 PM 42.7542 -73.5275 292° West 119 137 3,500 -194 Level Boston Center
Tue 04:26:24 PM 42.7578 -73.5403 291° West 126 145 3,300 -806 Descending Boston Center
Tue 04:27:13 PM 42.7525 -73.5850 261° West 144 166 2,600 -885 Descending Boston Center
Tue 04:27:25 PM 42.7525 -73.5978 270° West 140 161 2,400 -200 Descending Boston Center
Tue 04:28:13 PM 42.7500 -73.6336 265° West 129 148 2,400 98 Level Boston Center
Tue 04:28:26 PM 42.7508 -73.6447 276° West 129 148 2,500 -393 Climbing Boston Center
Tue 04:29:14 PM 42.7511 -73.6750 271° West 103 119 2,000 -581 Descending Boston Center
Tue 04:29:28 PM 42.7514 -73.6842 272° West 110 127 1,900 -636 Descending Boston Center
Tue 04:30:20 PM 42.7511 -73.7214 269° West 108 124 1,300 -590 Descending Boston Center
Tue 04:30:29 PM 42.7508 -73.7256 265° West 110 127 1,300 -537 Level Boston Center
Tue 04:31:27 PM 42.7497 -73.7647 268° West 107 123 700 -581 Descending Boston Center
Tue 04:31:31 PM 42.7497 -73.7694 270° West 109 125 700 -369 Level Boston Center
Tue 04:32:32 PM 42.7494 -73.8039 269° West 96 110 300 -393 Descending Boston Center
Tue 04:34:00 PM 42.7491 -73.8020 103° East  Level Estimated
Tue 04:41:00 PM 42.7491 -73.8020 North  Level Estimated

Login

Don't have an account? Register now (free) for customized features, flight alerts, and more!